sensor_id;sensor_type;location;lat;lon;timestamp;pressure;altitude;pressure_sealevel;temperature;humidity
80745;BME280;70143;52.396;16.950;2023-06-14T00:00:52;100800.66;;;14.86;72.67
80745;BME280;70143;52.396;16.950;2023-06-14T00:03:17;100798.78;;;14.88;72.37
80745;BME280;70143;52.396;16.950;2023-06-14T00:05:43;100800.16;;;14.97;71.84
80745;BME280;70143;52.396;16.950;2023-06-14T00:08:09;100804.88;;;14.90;72.58
80745;BME280;70143;52.396;16.950;2023-06-14T00:10:36;100801.34;;;14.89;72.49
80745;BME280;70143;52.396;16.950;2023-06-14T00:13:02;100794.97;;;14.95;71.77
80745;BME280;70143;52.396;16.950;2023-06-14T00:15:28;100795.03;;;14.94;71.91
80745;BME280;70143;52.396;16.950;2023-06-14T00:17:54;100789.34;;;14.84;72.36
80745;BME280;70143;52.396;16.950;2023-06-14T00:20:19;100794.47;;;14.87;72.67
80745;BME280;70143;52.396;16.950;2023-06-14T00:22:45;100800.59;;;14.87;72.76
80745;BME280;70143;52.396;16.950;2023-06-14T00:25:10;100802.22;;;14.90;72.27
80745;BME280;70143;52.396;16.950;2023-06-14T00:27:35;100799.66;;;14.88;72.27
80745;BME280;70143;52.396;16.950;2023-06-14T00:30:01;100784.50;;;14.94;72.72
80745;BME280;70143;52.396;16.950;2023-06-14T00:32:26;100799.09;;;15.01;72.53
80745;BME280;70143;52.396;16.950;2023-06-14T00:34:52;100798.19;;;15.02;72.37
80745;BME280;70143;52.396;16.950;2023-06-14T00:37:17;100799.25;;;14.98;73.03
80745;BME280;70143;52.396;16.950;2023-06-14T00:39:44;100807.28;;;14.95;72.89
80745;BME280;70143;52.396;16.950;2023-06-14T00:42:09;100797.75;;;14.92;73.42
80745;BME280;70143;52.396;16.950;2023-06-14T00:44:35;100794.06;;;14.96;73.21
80745;BME280;70143;52.396;16.950;2023-06-14T00:47:00;100801.06;;;14.96;73.99
80745;BME280;70143;52.396;16.950;2023-06-14T00:49:25;100795.09;;;14.92;73.92
80745;BME280;70143;52.396;16.950;2023-06-14T00:51:51;100790.81;;;14.89;73.99
80745;BME280;70143;52.396;16.950;2023-06-14T00:54:16;100797.75;;;14.92;74.18
80745;BME280;70143;52.396;16.950;2023-06-14T00:56:43;100791.97;;;14.84;74.57
80745;BME280;70143;52.396;16.950;2023-06-14T00:59:09;100790.25;;;14.83;74.50
80745;BME280;70143;52.396;16.950;2023-06-14T01:01:34;100791.69;;;14.90;74.35
80745;BME280;70143;52.396;16.950;2023-06-14T01:04:00;100803.00;;;14.92;74.47
80745;BME280;70143;52.396;16.950;2023-06-14T01:07:01;100805.72;;;14.90;74.74
80745;BME280;70143;52.396;16.950;2023-06-14T01:14:36;100802.66;;;14.81;75.75
80745;BME280;70143;52.396;16.950;2023-06-14T01:17:04;100799.88;;;14.84;75.42
80745;BME280;70143;52.396;16.950;2023-06-14T01:19:30;100797.44;;;14.79;75.43
80745;BME280;70143;52.396;16.950;2023-06-14T01:22:02;100793.16;;;14.77;75.94
80745;BME280;70143;52.396;16.950;2023-06-14T01:24:27;100792.31;;;14.76;76.27
80745;BME280;70143;52.396;16.950;2023-06-14T01:26:55;100793.44;;;14.70;76.80
80745;BME280;70143;52.396;16.950;2023-06-14T01:29:25;100785.63;;;14.69;76.59
80745;BME280;70143;52.396;16.950;2023-06-14T01:31:53;100778.41;;;14.72;76.50
80745;BME280;70143;52.396;16.950;2023-06-14T01:34:19;100773.38;;;14.68;76.49
80745;BME280;70143;52.396;16.950;2023-06-14T01:36:45;100773.03;;;14.55;76.83
80745;BME280;70143;52.396;16.950;2023-06-14T01:39:14;100778.78;;;14.65;76.34
80745;BME280;70143;52.396;16.950;2023-06-14T01:41:40;100778.91;;;14.62;76.44
80745;BME280;70143;52.396;16.950;2023-06-14T01:44:06;100772.91;;;14.58;76.75
80745;BME280;70143;52.396;16.950;2023-06-14T01:46:33;100769.47;;;14.56;76.26
80745;BME280;70143;52.396;16.950;2023-06-14T01:48:59;100769.38;;;14.58;76.74
80745;BME280;70143;52.396;16.950;2023-06-14T01:51:24;100772.03;;;14.58;76.53
80745;BME280;70143;52.396;16.950;2023-06-14T01:53:50;100768.03;;;14.49;77.33
80745;BME280;70143;52.396;16.950;2023-06-14T01:56:15;100766.47;;;14.45;76.99
80745;BME280;70143;52.396;16.950;2023-06-14T01:58:41;100762.94;;;14.44;77.67
80745;BME280;70143;52.396;16.950;2023-06-14T02:01:06;100761.53;;;14.37;77.27
80745;BME280;70143;52.396;16.950;2023-06-14T02:03:32;100755.47;;;14.35;77.71
80745;BME280;70143;52.396;16.950;2023-06-14T02:05:58;100754.47;;;14.37;77.73
80745;BME280;70143;52.396;16.950;2023-06-14T02:08:24;100759.75;;;14.37;78.04
80745;BME280;70143;52.396;16.950;2023-06-14T02:10:49;100764.88;;;14.41;77.70
80745;BME280;70143;52.396;16.950;2023-06-14T02:13:15;100765.41;;;14.28;78.24
80745;BME280;70143;52.396;16.950;2023-06-14T02:15:40;100761.94;;;14.28;78.27
80745;BME280;70143;52.396;16.950;2023-06-14T02:18:05;100767.84;;;14.33;78.34
80745;BME280;70143;52.396;16.950;2023-06-14T02:20:31;100774.75;;;14.35;78.47
80745;BME280;70143;52.396;16.950;2023-06-14T02:22:57;100765.78;;;14.40;78.04
80745;BME280;70143;52.396;16.950;2023-06-14T02:25:23;100761.81;;;14.31;78.00
80745;BME280;70143;52.396;16.950;2023-06-14T02:27:48;100765.53;;;14.25;78.37
80745;BME280;70143;52.396;16.950;2023-06-14T02:30:14;100764.38;;;14.32;77.27
80745;BME280;70143;52.396;16.950;2023-06-14T02:32:39;100768.97;;;14.27;77.06
80745;BME280;70143;52.396;16.950;2023-06-14T02:35:05;100765.69;;;14.22;76.49
80745;BME280;70143;52.396;16.950;2023-06-14T02:37:31;100772.53;;;14.26;76.64
80745;BME280;70143;52.396;16.950;2023-06-14T02:39:56;100761.34;;;14.21;77.09
80745;BME280;70143;52.396;16.950;2023-06-14T02:42:22;100766.59;;;14.21;76.36
80745;BME280;70143;52.396;16.950;2023-06-14T02:44:47;100775.28;;;14.23;76.13
80745;BME280;70143;52.396;16.950;2023-06-14T02:47:13;100775.31;;;14.22;76.56
80745;BME280;70143;52.396;16.950;2023-06-14T02:49:38;100778.63;;;14.27;76.74
80745;BME280;70143;52.396;16.950;2023-06-14T02:52:04;100779.56;;;14.26;76.67
80745;BME280;70143;52.396;16.950;2023-06-14T02:54:29;100769.28;;;14.19;77.11
80745;BME280;70143;52.396;16.950;2023-06-14T02:56:55;100779.41;;;14.29;76.94
80745;BME280;70143;52.396;16.950;2023-06-14T02:59:20;100775.03;;;14.29;76.70
80745;BME280;70143;52.396;16.950;2023-06-14T03:01:45;100774.22;;;14.27;76.66
80745;BME280;70143;52.396;16.950;2023-06-14T03:04:11;100771.72;;;14.24;77.30
80745;BME280;70143;52.396;16.950;2023-06-14T03:06:36;100773.84;;;14.16;77.67
80745;BME280;70143;52.396;16.950;2023-06-14T03:09:03;100777.38;;;14.15;76.89
80745;BME280;70143;52.396;16.950;2023-06-14T03:11:29;100768.91;;;14.08;77.34
80745;BME280;70143;52.396;16.950;2023-06-14T03:13:54;100766.53;;;14.02;77.12
80745;BME280;70143;52.396;16.950;2023-06-14T03:16:20;100769.88;;;14.06;77.14
80745;BME280;70143;52.396;16.950;2023-06-14T03:18:45;100782.78;;;14.12;77.38
80745;BME280;70143;52.396;16.950;2023-06-14T03:21:11;100765.25;;;14.11;77.70
80745;BME280;70143;52.396;16.950;2023-06-14T03:23:36;100769.34;;;14.18;77.24
80745;BME280;70143;52.396;16.950;2023-06-14T03:26:02;100773.78;;;14.17;77.05
80745;BME280;70143;52.396;16.950;2023-06-14T03:28:27;100778.03;;;14.20;77.56
80745;BME280;70143;52.396;16.950;2023-06-14T03:30:53;100776.97;;;14.24;77.08
80745;BME280;70143;52.396;16.950;2023-06-14T03:33:18;100768.31;;;14.22;76.94
80745;BME280;70143;52.396;16.950;2023-06-14T03:35:44;100772.41;;;14.29;76.87
80745;BME280;70143;52.396;16.950;2023-06-14T03:38:09;100778.50;;;14.30;76.72
80745;BME280;70143;52.396;16.950;2023-06-14T03:40:35;100783.06;;;14.26;76.77
80745;BME280;70143;52.396;16.950;2023-06-14T03:43:00;100791.53;;;14.33;76.23
80745;BME280;70143;52.396;16.950;2023-06-14T03:45:26;100791.59;;;14.31;76.72
80745;BME280;70143;52.396;16.950;2023-06-14T03:47:51;100781.47;;;14.22;76.71
80745;BME280;70143;52.396;16.950;2023-06-14T03:50:17;100788.56;;;14.20;76.54
80745;BME280;70143;52.396;16.950;2023-06-14T03:52:43;100788.56;;;14.20;76.94
80745;BME280;70143;52.396;16.950;2023-06-14T03:55:08;100784.38;;;14.16;76.29
80745;BME280;70143;52.396;16.950;2023-06-14T03:57:33;100786.88;;;14.19;76.28
80745;BME280;70143;52.396;16.950;2023-06-14T03:59:59;100791.25;;;14.18;76.75
80745;BME280;70143;52.396;16.950;2023-06-14T04:02:24;100796.56;;;14.17;76.32
80745;BME280;70143;52.396;16.950;2023-06-14T04:04:50;100794.75;;;14.19;76.74
80745;BME280;70143;52.396;16.950;2023-06-14T04:07:15;100796.50;;;14.18;76.71
80745;BME280;70143;52.396;16.950;2023-06-14T04:09:41;100784.88;;;14.24;76.18
80745;BME280;70143;52.396;16.950;2023-06-14T04:12:07;100805.09;;;14.24;76.62
80745;BME280;70143;52.396;16.950;2023-06-14T04:14:33;100802.53;;;14.22;77.19
80745;BME280;70143;52.396;16.950;2023-06-14T04:16:58;100803.50;;;14.19;77.57
80745;BME280;70143;52.396;16.950;2023-06-14T04:19:24;100800.16;;;14.16;77.50
80745;BME280;70143;52.396;16.950;2023-06-14T04:21:50;100805.78;;;14.27;77.27
80745;BME280;70143;52.396;16.950;2023-06-14T04:24:15;100813.28;;;14.36;76.76
80745;BME280;70143;52.396;16.950;2023-06-14T04:26:41;100802.38;;;14.46;76.00
80745;BME280;70143;52.396;16.950;2023-06-14T04:29:07;100802.44;;;14.44;75.85
80745;BME280;70143;52.396;16.950;2023-06-14T04:31:35;100803.56;;;14.38;76.00
80745;BME280;70143;52.396;16.950;2023-06-14T04:34:01;100807.13;;;14.37;76.18
80745;BME280;70143;52.396;16.950;2023-06-14T04:36:27;100800.28;;;14.33;76.59
80745;BME280;70143;52.396;16.950;2023-06-14T04:38:53;100800.75;;;14.43;75.70
80745;BME280;70143;52.396;16.950;2023-06-14T04:41:18;100803.44;;;14.42;75.52
80745;BME280;70143;52.396;16.950;2023-06-14T04:43:43;100805.25;;;14.40;75.86
80745;BME280;70143;52.396;16.950;2023-06-14T04:46:09;100804.16;;;14.45;76.04
80745;BME280;70143;52.396;16.950;2023-06-14T04:48:34;100807.53;;;14.49;75.63
80745;BME280;70143;52.396;16.950;2023-06-14T04:51:00;100807.19;;;14.57;75.32
80745;BME280;70143;52.396;16.950;2023-06-14T04:53:25;100808.66;;;14.64;74.98
80745;BME280;70143;52.396;16.950;2023-06-14T04:55:51;100820.22;;;14.80;74.78
80745;BME280;70143;52.396;16.950;2023-06-14T04:58:16;100825.47;;;14.80;74.73
80745;BME280;70143;52.396;16.950;2023-06-14T05:00:41;100817.00;;;14.73;75.20
80745;BME280;70143;52.396;16.950;2023-06-14T05:03:07;100819.97;;;14.66;75.14
80745;BME280;70143;52.396;16.950;2023-06-14T05:05:33;100822.00;;;14.80;75.32
80745;BME280;70143;52.396;16.950;2023-06-14T05:07:59;100818.19;;;14.87;74.75
80745;BME280;70143;52.396;16.950;2023-06-14T05:10:24;100812.69;;;14.92;74.24
80745;BME280;70143;52.396;16.950;2023-06-14T05:12:50;100820.25;;;14.99;74.11
80745;BME280;70143;52.396;16.950;2023-06-14T05:15:15;100817.47;;;15.02;74.20
80745;BME280;70143;52.396;16.950;2023-06-14T05:17:41;100817.13;;;15.10;74.47
80745;BME280;70143;52.396;16.950;2023-06-14T05:20:07;100816.56;;;15.22;73.78
80745;BME280;70143;52.396;16.950;2023-06-14T05:22:32;100822.13;;;15.35;73.46
80745;BME280;70143;52.396;16.950;2023-06-14T05:24:58;100823.53;;;15.42;72.37
80745;BME280;70143;52.396;16.950;2023-06-14T05:27:23;100816.84;;;15.35;72.74
80745;BME280;70143;52.396;16.950;2023-06-14T05:29:49;100825.88;;;15.49;72.33
80745;BME280;70143;52.396;16.950;2023-06-14T05:32:14;100829.38;;;15.49;72.34
80745;BME280;70143;52.396;16.950;2023-06-14T05:34:40;100830.66;;;15.59;71.38
80745;BME280;70143;52.396;16.950;2023-06-14T05:37:05;100831.81;;;15.54;71.48
80745;BME280;70143;52.396;16.950;2023-06-14T05:39:31;100828.09;;;15.58;71.86
80745;BME280;70143;52.396;16.950;2023-06-14T05:41:56;100835.34;;;15.72;71.59
80745;BME280;70143;52.396;16.950;2023-06-14T05:44:22;100836.63;;;15.63;72.18
80745;BME280;70143;52.396;16.950;2023-06-14T05:46:47;100841.91;;;15.63;71.76
80745;BME280;70143;52.396;16.950;2023-06-14T05:49:13;100841.19;;;15.78;71.23
80745;BME280;70143;52.396;16.950;2023-06-14T05:51:38;100839.69;;;15.92;70.91
80745;BME280;70143;52.396;16.950;2023-06-14T05:54:04;100838.25;;;15.85;71.36
80745;BME280;70143;52.396;16.950;2023-06-14T05:56:29;100839.47;;;15.77;71.23
80745;BME280;70143;52.396;16.950;2023-06-14T05:58:54;100832.75;;;15.89;71.02
80745;BME280;70143;52.396;16.950;2023-06-14T06:01:20;100848.28;;;15.95;71.12
80745;BME280;70143;52.396;16.950;2023-06-14T06:03:45;100846.53;;;16.13;70.91
80745;BME280;70143;52.396;16.950;2023-06-14T06:06:12;100847.13;;;16.01;71.50
80745;BME280;70143;52.396;16.950;2023-06-14T06:08:37;100849.78;;;16.01;71.09
80745;BME280;70143;52.396;16.950;2023-06-14T06:11:03;100847.75;;;16.06;71.66
80745;BME280;70143;52.396;16.950;2023-06-14T06:13:28;100848.41;;;16.11;70.86
80745;BME280;70143;52.396;16.950;2023-06-14T06:15:55;100847.13;;;16.01;71.64
80745;BME280;70143;52.396;16.950;2023-06-14T06:18:20;100847.50;;;15.93;71.33
80745;BME280;70143;52.396;16.950;2023-06-14T06:20:46;100857.69;;;16.01;71.80
80745;BME280;70143;52.396;16.950;2023-06-14T06:23:11;100849.38;;;15.91;72.55
80745;BME280;70143;52.396;16.950;2023-06-14T06:25:37;100848.47;;;16.10;71.52
80745;BME280;70143;52.396;16.950;2023-06-14T06:28:02;100856.09;;;16.16;71.65
80745;BME280;70143;52.396;16.950;2023-06-14T06:30:28;100862.78;;;16.23;70.89
80745;BME280;70143;52.396;16.950;2023-06-14T06:32:53;100860.22;;;16.22;71.01
80745;BME280;70143;52.396;16.950;2023-06-14T06:35:19;100855.69;;;16.24;70.94
80745;BME280;70143;52.396;16.950;2023-06-14T06:37:44;100871.41;;;16.44;69.88
80745;BME280;70143;52.396;16.950;2023-06-14T06:40:10;100864.41;;;16.43;69.50
80745;BME280;70143;52.396;16.950;2023-06-14T06:42:37;100867.34;;;16.55;69.47
80745;BME280;70143;52.396;16.950;2023-06-14T06:45:03;100870.63;;;16.60;68.97
80745;BME280;70143;52.396;16.950;2023-06-14T06:47:29;100860.88;;;16.78;68.29
80745;BME280;70143;52.396;16.950;2023-06-14T06:49:54;100864.72;;;16.90;67.77
80745;BME280;70143;52.396;16.950;2023-06-14T06:52:19;100873.69;;;17.03;67.39
80745;BME280;70143;52.396;16.950;2023-06-14T06:54:45;100879.19;;;17.16;66.89
80745;BME280;70143;52.396;16.950;2023-06-14T06:57:10;100875.78;;;17.14;67.04
80745;BME280;70143;52.396;16.950;2023-06-14T06:59:36;100872.56;;;17.25;66.63
80745;BME280;70143;52.396;16.950;2023-06-14T07:02:02;100870.25;;;17.18;66.69
80745;BME280;70143;52.396;16.950;2023-06-14T07:04:28;100876.63;;;17.14;66.59
80745;BME280;70143;52.396;16.950;2023-06-14T07:06:53;100880.91;;;17.17;66.68
80745;BME280;70143;52.396;16.950;2023-06-14T07:09:19;100886.09;;;17.18;66.06
80745;BME280;70143;52.396;16.950;2023-06-14T07:11:44;100890.09;;;17.26;66.03
80745;BME280;70143;52.396;16.950;2023-06-14T07:14:10;100887.38;;;17.27;65.94
80745;BME280;70143;52.396;16.950;2023-06-14T07:16:36;100886.38;;;17.30;65.71
80745;BME280;70143;52.396;16.950;2023-06-14T07:19:02;100874.84;;;17.31;65.83
80745;BME280;70143;52.396;16.950;2023-06-14T07:21:28;100877.34;;;17.34;66.10
80745;BME280;70143;52.396;16.950;2023-06-14T07:23:54;100885.53;;;17.29;65.75
80745;BME280;70143;52.396;16.950;2023-06-14T07:26:20;100878.59;;;17.27;66.24
80745;BME280;70143;52.396;16.950;2023-06-14T07:28:46;100881.28;;;17.09;66.01
80745;BME280;70143;52.396;16.950;2023-06-14T07:31:12;100885.31;;;17.16;65.79
80745;BME280;70143;52.396;16.950;2023-06-14T07:33:38;100880.72;;;17.20;65.52
80745;BME280;70143;52.396;16.950;2023-06-14T07:36:03;100886.78;;;17.22;66.18
80745;BME280;70143;52.396;16.950;2023-06-14T07:38:29;100873.69;;;17.03;67.16
80745;BME280;70143;52.396;16.950;2023-06-14T07:40:54;100884.06;;;17.24;67.05
80745;BME280;70143;52.396;16.950;2023-06-14T07:43:20;100880.75;;;17.36;65.93
80745;BME280;70143;52.396;16.950;2023-06-14T07:45:45;100884.44;;;17.65;65.18
80745;BME280;70143;52.396;16.950;2023-06-14T07:48:11;100891.53;;;17.49;65.39
80745;BME280;70143;52.396;16.950;2023-06-14T07:50:36;100892.34;;;17.49;65.15
80745;BME280;70143;52.396;16.950;2023-06-14T07:53:02;100893.63;;;17.42;64.42
80745;BME280;70143;52.396;16.950;2023-06-14T07:55:27;100888.06;;;17.31;65.54
80745;BME280;70143;52.396;16.950;2023-06-14T07:57:53;100878.69;;;17.25;65.11
80745;BME280;70143;52.396;16.950;2023-06-14T08:00:19;100884.31;;;17.19;65.66
80745;BME280;70143;52.396;16.950;2023-06-14T08:02:45;100879.59;;;17.24;65.22
80745;BME280;70143;52.396;16.950;2023-06-14T08:05:11;100887.38;;;17.27;65.54
80745;BME280;70143;52.396;16.950;2023-06-14T08:07:37;100885.53;;;17.29;64.98
80745;BME280;70143;52.396;16.950;2023-06-14T08:10:04;100874.69;;;17.34;64.38
80745;BME280;70143;52.396;16.950;2023-06-14T08:12:30;100870.69;;;17.43;63.72
80745;BME280;70143;52.396;16.950;2023-06-14T08:14:55;100865.56;;;17.40;63.42
80745;BME280;70143;52.396;16.950;2023-06-14T08:17:21;100884.16;;;17.54;63.57
80745;BME280;70143;52.396;16.950;2023-06-14T08:19:46;100876.75;;;17.77;61.86
80745;BME280;70143;52.396;16.950;2023-06-14T08:22:11;100872.56;;;18.04;61.43
80745;BME280;70143;52.396;16.950;2023-06-14T08:24:37;100881.25;;;18.22;61.10
80745;BME280;70143;52.396;16.950;2023-06-14T08:27:03;100885.50;;;18.25;61.75
80745;BME280;70143;52.396;16.950;2023-06-14T08:29:28;100879.81;;;18.47;61.45
80745;BME280;70143;52.396;16.950;2023-06-14T08:31:54;100886.19;;;18.73;61.03
80745;BME280;70143;52.396;16.950;2023-06-14T08:34:19;100888.41;;;18.95;59.39
80745;BME280;70143;52.396;16.950;2023-06-14T08:36:44;100889.41;;;19.23;59.17
80745;BME280;70143;52.396;16.950;2023-06-14T08:39:10;100886.88;;;19.78;57.86
80745;BME280;70143;52.396;16.950;2023-06-14T08:41:35;100882.88;;;20.12;55.92
80745;BME280;70143;52.396;16.950;2023-06-14T08:44:01;100883.78;;;20.38;55.31
80745;BME280;70143;52.396;16.950;2023-06-14T08:46:27;100886.97;;;20.44;55.08
80745;BME280;70143;52.396;16.950;2023-06-14T08:48:55;100887.38;;;20.37;53.49
80745;BME280;70143;52.396;16.950;2023-06-14T08:51:20;100887.06;;;20.42;53.54
80745;BME280;70143;52.396;16.950;2023-06-14T08:53:53;100878.25;;;20.42;53.36
80745;BME280;70143;52.396;16.950;2023-06-14T08:56:19;100879.44;;;20.63;53.49
80745;BME280;70143;52.396;16.950;2023-06-14T08:58:46;100883.22;;;20.99;51.78
80745;BME280;70143;52.396;16.950;2023-06-14T09:01:12;100883.63;;;21.06;51.43
80745;BME280;70143;52.396;16.950;2023-06-14T09:03:37;100884.06;;;21.13;51.42
80745;BME280;70143;52.396;16.950;2023-06-14T09:06:04;100881.41;;;20.87;52.02
80745;BME280;70143;52.396;16.950;2023-06-14T09:08:30;100886.41;;;21.04;51.64
80745;BME280;70143;52.396;16.950;2023-06-14T09:10:56;100876.00;;;20.88;50.86
80745;BME280;70143;52.396;16.950;2023-06-14T09:13:22;100884.28;;;21.09;50.98
80745;BME280;70143;52.396;16.950;2023-06-14T09:15:47;100887.66;;;21.37;50.55
80745;BME280;70143;52.396;16.950;2023-06-14T09:18:13;100883.78;;;21.67;49.20
80745;BME280;70143;52.396;16.950;2023-06-14T09:20:38;100888.91;;;21.44;48.91
80745;BME280;70143;52.396;16.950;2023-06-14T09:23:05;100879.59;;;21.26;49.05
80745;BME280;70143;52.396;16.950;2023-06-14T09:25:30;100886.81;;;20.98;49.23
80745;BME280;70143;52.396;16.950;2023-06-14T09:27:56;100884.41;;;21.08;50.39
80745;BME280;70143;52.396;16.950;2023-06-14T09:30:21;100878.72;;;21.38;49.73
80745;BME280;70143;52.396;16.950;2023-06-14T09:32:47;100874.88;;;21.42;49.05
80745;BME280;70143;52.396;16.950;2023-06-14T09:35:12;100876.28;;;21.72;48.91
80745;BME280;70143;52.396;16.950;2023-06-14T09:37:42;100870.16;;;21.46;47.55
80745;BME280;70143;52.396;16.950;2023-06-14T09:40:08;100870.00;;;21.36;47.32
80745;BME280;70143;52.396;16.950;2023-06-14T09:42:34;100869.56;;;21.42;47.35
80745;BME280;70143;52.396;16.950;2023-06-14T09:44:59;100867.34;;;21.23;46.83
80745;BME280;70143;52.396;16.950;2023-06-14T09:47:25;100865.56;;;20.98;47.78
80745;BME280;70143;52.396;16.950;2023-06-14T09:49:51;100868.00;;;21.01;48.01
80745;BME280;70143;52.396;16.950;2023-06-14T09:52:18;100860.88;;;21.15;47.79
80745;BME280;70143;52.396;16.950;2023-06-14T09:54:45;100865.03;;;20.67;48.22
80745;BME280;70143;52.396;16.950;2023-06-14T09:57:11;100857.06;;;20.93;47.77
80745;BME280;70143;52.396;16.950;2023-06-14T09:59:41;100852.81;;;20.90;48.66
80745;BME280;70143;52.396;16.950;2023-06-14T10:02:11;100847.38;;;21.05;47.66
80745;BME280;70143;52.396;16.950;2023-06-14T10:04:37;100838.03;;;20.86;47.85
80745;BME280;70143;52.396;16.950;2023-06-14T10:07:04;100850.25;;;21.02;47.58
80745;BME280;70143;52.396;16.950;2023-06-14T10:09:30;100844.28;;;20.98;47.53
80745;BME280;70143;52.396;16.950;2023-06-14T10:11:56;100842.78;;;21.20;47.01
80745;BME280;70143;52.396;16.950;2023-06-14T10:14:22;100834.25;;;21.15;47.02
80745;BME280;70143;52.396;16.950;2023-06-14T10:16:55;100835.47;;;21.11;47.42
80745;BME280;70143;52.396;16.950;2023-06-14T10:19:30;100835.75;;;21.06;46.96
80745;BME280;70143;52.396;16.950;2023-06-14T10:22:16;100831.47;;;21.29;47.22
80745;BME280;70143;52.396;16.950;2023-06-14T10:24:45;100837.72;;;22.02;46.24
80745;BME280;70143;52.396;16.950;2023-06-14T10:27:13;100824.03;;;22.31;44.52
80745;BME280;70143;52.396;16.950;2023-06-14T10:32:20;100827.97;;;22.72;42.66
80745;BME280;70143;52.396;16.950;2023-06-14T10:34:54;100813.91;;;23.38;41.47
80745;BME280;70143;52.396;16.950;2023-06-14T10:37:20;100819.41;;;23.69;40.66
80745;BME280;70143;52.396;16.950;2023-06-14T10:39:46;100820.88;;;24.26;39.59
80745;BME280;70143;52.396;16.950;2023-06-14T10:42:12;100814.88;;;24.13;39.47
80745;BME280;70143;52.396;16.950;2023-06-14T10:45:00;100818.72;;;24.20;39.55
80745;BME280;70143;52.396;16.950;2023-06-14T10:47:36;100810.53;;;24.12;38.69
80745;BME280;70143;52.396;16.950;2023-06-14T10:52:28;100804.44;;;24.52;38.25
80745;BME280;70143;52.396;16.950;2023-06-14T10:57:45;100810.63;;;23.89;38.68
80745;BME280;70143;52.396;16.950;2023-06-14T11:00:12;100818.91;;;23.86;38.97
80745;BME280;70143;52.396;16.950;2023-06-14T11:05:26;100798.78;;;23.71;38.08
80745;BME280;70143;52.396;16.950;2023-06-14T11:08:27;100809.22;;;23.74;38.10
80745;BME280;70143;52.396;16.950;2023-06-14T11:10:54;100813.56;;;23.75;38.57
80745;BME280;70143;52.396;16.950;2023-06-14T11:13:24;100805.06;;;24.14;38.57
80745;BME280;70143;52.396;16.950;2023-06-14T11:15:50;100800.59;;;24.45;37.47
80745;BME280;70143;52.396;16.950;2023-06-14T11:18:16;100800.38;;;24.79;36.09
80745;BME280;70143;52.396;16.950;2023-06-14T11:20:41;100795.19;;;24.87;36.02
80745;BME280;70143;52.396;16.950;2023-06-14T11:23:07;100803.53;;;24.94;36.11
80745;BME280;70143;52.396;16.950;2023-06-14T11:25:32;100803.19;;;24.77;35.95
80745;BME280;70143;52.396;16.950;2023-06-14T11:27:58;100795.31;;;25.26;34.42
80745;BME280;70143;52.396;16.950;2023-06-14T11:30:23;100792.31;;;25.70;34.48
80745;BME280;70143;52.396;16.950;2023-06-14T11:32:50;100789.50;;;26.11;34.25
80745;BME280;70143;52.396;16.950;2023-06-14T11:35:16;100784.94;;;26.41;32.75
80745;BME280;70143;52.396;16.950;2023-06-14T11:37:42;100790.25;;;26.50;32.43
80745;BME280;70143;52.396;16.950;2023-06-14T11:40:09;100781.16;;;25.94;33.40
80745;BME280;70143;52.396;16.950;2023-06-14T11:42:35;100786.25;;;25.48;33.57
80745;BME280;70143;52.396;16.950;2023-06-14T11:45:01;100785.22;;;24.89;34.49
80745;BME280;70143;52.396;16.950;2023-06-14T11:47:33;100779.28;;;24.13;35.35
80745;BME280;70143;52.396;16.950;2023-06-14T11:49:59;100778.97;;;23.85;37.06
80745;BME280;70143;52.396;16.950;2023-06-14T11:52:25;100778.97;;;24.06;36.44
80745;BME280;70143;52.396;16.950;2023-06-14T11:54:51;100780.34;;;24.00;36.70
80745;BME280;70143;52.396;16.950;2023-06-14T11:57:18;100774.75;;;23.71;37.17
80745;BME280;70143;52.396;16.950;2023-06-14T11:59:44;100769.31;;;23.17;38.43
80745;BME280;70143;52.396;16.950;2023-06-14T12:02:14;100759.13;;;22.89;38.89
80745;BME280;70143;52.396;16.950;2023-06-14T12:04:49;100767.50;;;22.95;39.09
80745;BME280;70143;52.396;16.950;2023-06-14T12:07:15;100768.81;;;22.78;39.86
80745;BME280;70143;52.396;16.950;2023-06-14T12:09:41;100771.25;;;22.81;40.04
80745;BME280;70143;52.396;16.950;2023-06-14T12:12:07;100752.31;;;22.84;39.38
80745;BME280;70143;52.396;16.950;2023-06-14T12:14:33;100763.47;;;23.24;39.41
80745;BME280;70143;52.396;16.950;2023-06-14T12:17:07;100758.56;;;23.40;38.71
80745;BME280;70143;52.396;16.950;2023-06-14T12:19:33;100760.41;;;23.39;37.91
80745;BME280;70143;52.396;16.950;2023-06-14T12:22:06;100759.78;;;23.47;37.97
80745;BME280;70143;52.396;16.950;2023-06-14T12:24:32;100756.25;;;23.47;37.23
80745;BME280;70143;52.396;16.950;2023-06-14T12:26:58;100751.19;;;23.32;36.86
80745;BME280;70143;52.396;16.950;2023-06-14T12:29:24;100755.38;;;23.14;37.15
80745;BME280;70143;52.396;16.950;2023-06-14T12:31:49;100747.69;;;23.32;36.78
80745;BME280;70143;52.396;16.950;2023-06-14T12:34:14;100756.97;;;23.49;37.00
80745;BME280;70143;52.396;16.950;2023-06-14T12:36:40;100758.28;;;23.54;36.81
80745;BME280;70143;52.396;16.950;2023-06-14T12:39:07;100741.97;;;23.69;36.70
80745;BME280;70143;52.396;16.950;2023-06-14T12:41:33;100755.94;;;23.94;36.08
80745;BME280;70143;52.396;16.950;2023-06-14T12:43:58;100762.22;;;24.04;35.82
80745;BME280;70143;52.396;16.950;2023-06-14T12:46:24;100746.44;;;24.01;35.53
80745;BME280;70143;52.396;16.950;2023-06-14T12:48:49;100749.75;;;24.14;34.66
80745;BME280;70143;52.396;16.950;2023-06-14T12:51:16;100747.75;;;24.27;34.70